sensor_id;sensor_type;location;lat;lon;timestamp;temperature;humidity
26537;DHT22;14204;51.262;5.488;2023-05-28T00:02:02;17.00;99.90
26537;DHT22;14204;51.262;5.488;2023-05-28T00:04:28;16.90;99.90
26537;DHT22;14204;51.262;5.488;2023-05-28T00:06:54;16.90;99.90
26537;DHT22;14204;51.262;5.488;2023-05-28T00:09:21;16.90;99.90
26537;DHT22;14204;51.262;5.488;2023-05-28T00:11:47;16.80;99.90
26537;DHT22;14204;51.262;5.488;2023-05-28T00:14:13;16.80;99.90
26537;DHT22;14204;51.262;5.488;2023-05-28T00:16:38;16.80;99.90
26537;DHT22;14204;51.262;5.488;2023-05-28T00:19:06;16.70;99.90
26537;DHT22;14204;51.262;5.488;2023-05-28T00:21:32;16.70;99.90
26537;DHT22;14204;51.262;5.488;2023-05-28T00:23:59;16.60;99.90
26537;DHT22;14204;51.262;5.488;2023-05-28T00:26:25;16.60;99.90
26537;DHT22;14204;51.262;5.488;2023-05-28T00:28:52;16.60;99.90
26537;DHT22;14204;51.262;5.488;2023-05-28T00:31:18;16.60;99.90
26537;DHT22;14204;51.262;5.488;2023-05-28T00:33:44;16.40;99.90
26537;DHT22;14204;51.262;5.488;2023-05-28T00:36:11;16.50;99.90
26537;DHT22;14204;51.262;5.488;2023-05-28T00:38:37;16.40;99.90
26537;DHT22;14204;51.262;5.488;2023-05-28T00:41:03;16.30;99.90
26537;DHT22;14204;51.262;5.488;2023-05-28T00:43:28;16.30;99.90
26537;DHT22;14204;51.262;5.488;2023-05-28T00:45:58;16.30;99.90
26537;DHT22;14204;51.262;5.488;2023-05-28T00:48:25;16.30;99.90
26537;DHT22;14204;51.262;5.488;2023-05-28T00:50:51;16.20;99.90
26537;DHT22;14204;51.262;5.488;2023-05-28T00:53:16;16.20;99.90
26537;DHT22;14204;51.262;5.488;2023-05-28T00:55:43;16.20;99.90
26537;DHT22;14204;51.262;5.488;2023-05-28T00:58:10;16.10;99.90
26537;DHT22;14204;51.262;5.488;2023-05-28T01:00:37;16.10;99.90
26537;DHT22;14204;51.262;5.488;2023-05-28T01:03:03;16.10;99.90
26537;DHT22;14204;51.262;5.488;2023-05-28T01:05:30;16.10;99.90
26537;DHT22;14204;51.262;5.488;2023-05-28T01:08:03;16.00;99.90
26537;DHT22;14204;51.262;5.488;2023-05-28T01:10:29;15.90;99.90
26537;DHT22;14204;51.262;5.488;2023-05-28T01:12:57;15.90;99.90
26537;DHT22;14204;51.262;5.488;2023-05-28T01:15:25;15.90;99.90
26537;DHT22;14204;51.262;5.488;2023-05-28T01:17:58;15.80;99.90
26537;DHT22;14204;51.262;5.488;2023-05-28T01:20:29;15.80;99.90
26537;DHT22;14204;51.262;5.488;2023-05-28T01:23:05;15.80;99.90
26537;DHT22;14204;51.262;5.488;2023-05-28T01:25:33;15.70;99.90
26537;DHT22;14204;51.262;5.488;2023-05-28T01:28:00;15.70;99.90
26537;DHT22;14204;51.262;5.488;2023-05-28T01:30:28;15.70;99.90
26537;DHT22;14204;51.262;5.488;2023-05-28T01:32:54;15.70;99.90
26537;DHT22;14204;51.262;5.488;2023-05-28T01:35:20;15.40;99.90
26537;DHT22;14204;51.262;5.488;2023-05-28T01:37:51;15.40;99.90
26537;DHT22;14204;51.262;5.488;2023-05-28T01:40:19;15.40;99.90
26537;DHT22;14204;51.262;5.488;2023-05-28T01:42:46;15.40;99.90
26537;DHT22;14204;51.262;5.488;2023-05-28T01:45:13;15.30;99.90
26537;DHT22;14204;51.262;5.488;2023-05-28T01:47:40;15.30;99.90
26537;DHT22;14204;51.262;5.488;2023-05-28T01:50:06;15.40;99.90
26537;DHT22;14204;51.262;5.488;2023-05-28T01:52:32;15.40;99.90
26537;DHT22;14204;51.262;5.488;2023-05-28T01:54:58;15.30;99.90
26537;DHT22;14204;51.262;5.488;2023-05-28T01:57:24;15.30;99.90
26537;DHT22;14204;51.262;5.488;2023-05-28T01:59:50;15.20;99.90
26537;DHT22;14204;51.262;5.488;2023-05-28T02:02:15;15.10;99.90
26537;DHT22;14204;51.262;5.488;2023-05-28T02:04:41;15.00;99.90
26537;DHT22;14204;51.262;5.488;2023-05-28T02:07:07;15.10;99.90
26537;DHT22;14204;51.262;5.488;2023-05-28T02:09:33;15.00;99.90
26537;DHT22;14204;51.262;5.488;2023-05-28T02:11:58;15.00;99.90
26537;DHT22;14204;51.262;5.488;2023-05-28T02:14:28;15.00;99.90
26537;DHT22;14204;51.262;5.488;2023-05-28T02:16:54;15.00;99.90
26537;DHT22;14204;51.262;5.488;2023-05-28T02:19:20;15.00;99.90
26537;DHT22;14204;51.262;5.488;2023-05-28T02:21:46;15.00;99.90
26537;DHT22;14204;51.262;5.488;2023-05-28T02:24:12;15.00;99.90
26537;DHT22;14204;51.262;5.488;2023-05-28T02:26:38;14.90;99.90
26537;DHT22;14204;51.262;5.488;2023-05-28T02:29:03;14.90;99.90
26537;DHT22;14204;51.262;5.488;2023-05-28T02:31:29;14.90;99.90
26537;DHT22;14204;51.262;5.488;2023-05-28T02:33:55;14.90;99.90
26537;DHT22;14204;51.262;5.488;2023-05-28T02:36:20;14.80;99.90
26537;DHT22;14204;51.262;5.488;2023-05-28T02:38:46;14.80;99.90
26537;DHT22;14204;51.262;5.488;2023-05-28T02:41:12;14.80;99.90
26537;DHT22;14204;51.262;5.488;2023-05-28T02:43:38;14.80;99.90
26537;DHT22;14204;51.262;5.488;2023-05-28T02:46:04;14.70;99.90
26537;DHT22;14204;51.262;5.488;2023-05-28T02:48:29;14.70;99.90
26537;DHT22;14204;51.262;5.488;2023-05-28T02:50:56;14.70;99.90
26537;DHT22;14204;51.262;5.488;2023-05-28T02:53:22;14.70;99.90
26537;DHT22;14204;51.262;5.488;2023-05-28T02:55:48;14.60;99.90
26537;DHT22;14204;51.262;5.488;2023-05-28T02:58:15;14.60;99.90
26537;DHT22;14204;51.262;5.488;2023-05-28T03:00:41;14.50;99.90
26537;DHT22;14204;51.262;5.488;2023-05-28T03:03:07;14.50;99.90
26537;DHT22;14204;51.262;5.488;2023-05-28T03:05:34;14.50;99.90
26537;DHT22;14204;51.262;5.488;2023-05-28T03:08:00;14.50;99.90
26537;DHT22;14204;51.262;5.488;2023-05-28T03:10:25;14.50;99.90
26537;DHT22;14204;51.262;5.488;2023-05-28T03:12:51;14.50;99.90
26537;DHT22;14204;51.262;5.488;2023-05-28T03:15:17;14.40;99.90
26537;DHT22;14204;51.262;5.488;2023-05-28T03:17:42;14.40;99.90
26537;DHT22;14204;51.262;5.488;2023-05-28T03:20:08;14.40;99.90
26537;DHT22;14204;51.262;5.488;2023-05-28T03:22:36;14.40;99.90
26537;DHT22;14204;51.262;5.488;2023-05-28T03:25:05;14.30;99.90
26537;DHT22;14204;51.262;5.488;2023-05-28T03:27:34;14.30;99.90
26537;DHT22;14204;51.262;5.488;2023-05-28T03:29:59;14.30;99.90
26537;DHT22;14204;51.262;5.488;2023-05-28T03:32:25;14.20;99.90
26537;DHT22;14204;51.262;5.488;2023-05-28T03:34:51;14.20;99.90
26537;DHT22;14204;51.262;5.488;2023-05-28T03:37:16;14.20;99.90
26537;DHT22;14204;51.262;5.488;2023-05-28T03:39:43;14.20;99.90
26537;DHT22;14204;51.262;5.488;2023-05-28T03:42:09;14.20;99.90
26537;DHT22;14204;51.262;5.488;2023-05-28T03:44:34;14.20;99.90
26537;DHT22;14204;51.262;5.488;2023-05-28T03:47:00;14.20;99.90
26537;DHT22;14204;51.262;5.488;2023-05-28T03:49:26;14.10;99.90
26537;DHT22;14204;51.262;5.488;2023-05-28T03:51:52;14.10;99.90
26537;DHT22;14204;51.262;5.488;2023-05-28T03:54:18;14.10;99.90
26537;DHT22;14204;51.262;5.488;2023-05-28T03:56:44;14.10;99.90
26537;DHT22;14204;51.262;5.488;2023-05-28T03:59:09;14.00;99.90
26537;DHT22;14204;51.262;5.488;2023-05-28T04:01:35;14.10;99.90
26537;DHT22;14204;51.262;5.488;2023-05-28T04:04:02;14.00;99.90
26537;DHT22;14204;51.262;5.488;2023-05-28T04:06:28;14.00;99.90
26537;DHT22;14204;51.262;5.488;2023-05-28T04:08:55;14.00;99.90
26537;DHT22;14204;51.262;5.488;2023-05-28T04:11:21;14.00;99.90
26537;DHT22;14204;51.262;5.488;2023-05-28T04:13:50;14.00;99.90
26537;DHT22;14204;51.262;5.488;2023-05-28T04:16:16;13.90;99.90
26537;DHT22;14204;51.262;5.488;2023-05-28T04:18:42;14.00;99.90
26537;DHT22;14204;51.262;5.488;2023-05-28T04:21:07;13.90;99.90
26537;DHT22;14204;51.262;5.488;2023-05-28T04:23:33;13.90;99.90
26537;DHT22;14204;51.262;5.488;2023-05-28T04:25:59;13.90;99.90
26537;DHT22;14204;51.262;5.488;2023-05-28T04:28:25;13.90;99.90
26537;DHT22;14204;51.262;5.488;2023-05-28T04:30:53;13.90;99.90
26537;DHT22;14204;51.262;5.488;2023-05-28T04:33:20;13.90;99.90
26537;DHT22;14204;51.262;5.488;2023-05-28T04:35:47;13.90;99.90
26537;DHT22;14204;51.262;5.488;2023-05-28T04:38:12;13.90;99.90
26537;DHT22;14204;51.262;5.488;2023-05-28T04:40:38;13.90;99.90
26537;DHT22;14204;51.262;5.488;2023-05-28T04:43:05;13.90;99.90
26537;DHT22;14204;51.262;5.488;2023-05-28T04:45:30;13.90;99.90
26537;DHT22;14204;51.262;5.488;2023-05-28T04:47:57;13.90;99.90
26537;DHT22;14204;51.262;5.488;2023-05-28T04:50:24;13.90;99.90
26537;DHT22;14204;51.262;5.488;2023-05-28T04:52:50;13.90;99.90
26537;DHT22;14204;51.262;5.488;2023-05-28T04:55:16;14.00;99.90
26537;DHT22;14204;51.262;5.488;2023-05-28T04:57:42;14.00;99.90
26537;DHT22;14204;51.262;5.488;2023-05-28T05:00:08;14.10;99.90
26537;DHT22;14204;51.262;5.488;2023-05-28T05:02:38;14.10;99.90
26537;DHT22;14204;51.262;5.488;2023-05-28T05:05:05;14.20;99.90
26537;DHT22;14204;51.262;5.488;2023-05-28T05:07:31;14.20;99.90
26537;DHT22;14204;51.262;5.488;2023-05-28T05:09:57;14.30;99.90
26537;DHT22;14204;51.262;5.488;2023-05-28T05:12:23;14.30;99.90
26537;DHT22;14204;51.262;5.488;2023-05-28T05:14:48;14.30;99.90
26537;DHT22;14204;51.262;5.488;2023-05-28T05:17:14;14.30;99.90
26537;DHT22;14204;51.262;5.488;2023-05-28T05:19:40;14.40;99.90
26537;DHT22;14204;51.262;5.488;2023-05-28T05:22:05;14.40;99.90
26537;DHT22;14204;51.262;5.488;2023-05-28T05:24:32;14.40;99.90
26537;DHT22;14204;51.262;5.488;2023-05-28T05:26:57;14.40;99.90
26537;DHT22;14204;51.262;5.488;2023-05-28T05:29:23;14.50;99.90
26537;DHT22;14204;51.262;5.488;2023-05-28T05:31:49;14.50;99.90
26537;DHT22;14204;51.262;5.488;2023-05-28T05:34:15;14.50;99.90
26537;DHT22;14204;51.262;5.488;2023-05-28T05:36:41;14.60;99.90
26537;DHT22;14204;51.262;5.488;2023-05-28T05:39:07;14.60;99.90
26537;DHT22;14204;51.262;5.488;2023-05-28T05:41:33;14.50;99.90
26537;DHT22;14204;51.262;5.488;2023-05-28T05:43:59;14.60;99.90
26537;DHT22;14204;51.262;5.488;2023-05-28T05:46:25;14.50;99.90
26537;DHT22;14204;51.262;5.488;2023-05-28T05:48:51;14.60;99.90
26537;DHT22;14204;51.262;5.488;2023-05-28T05:51:16;14.70;99.90
26537;DHT22;14204;51.262;5.488;2023-05-28T05:53:44;14.70;99.90
26537;DHT22;14204;51.262;5.488;2023-05-28T05:56:10;14.80;99.90
26537;DHT22;14204;51.262;5.488;2023-05-28T05:58:36;14.80;99.90
26537;DHT22;14204;51.262;5.488;2023-05-28T06:01:03;14.80;99.90
26537;DHT22;14204;51.262;5.488;2023-05-28T06:03:29;14.80;99.90
26537;DHT22;14204;51.262;5.488;2023-05-28T06:05:56;14.80;99.90
26537;DHT22;14204;51.262;5.488;2023-05-28T06:08:22;14.90;99.90
26537;DHT22;14204;51.262;5.488;2023-05-28T06:10:47;15.00;99.90
26537;DHT22;14204;51.262;5.488;2023-05-28T06:13:14;15.00;99.90
26537;DHT22;14204;51.262;5.488;2023-05-28T06:15:40;15.00;99.90
26537;DHT22;14204;51.262;5.488;2023-05-28T06:18:06;15.10;99.90
26537;DHT22;14204;51.262;5.488;2023-05-28T06:20:32;15.10;99.90
26537;DHT22;14204;51.262;5.488;2023-05-28T06:22:58;15.10;99.90
26537;DHT22;14204;51.262;5.488;2023-05-28T06:25:24;15.30;99.90
26537;DHT22;14204;51.262;5.488;2023-05-28T06:27:50;15.30;99.90
26537;DHT22;14204;51.262;5.488;2023-05-28T06:30:16;15.40;99.90
26537;DHT22;14204;51.262;5.488;2023-05-28T06:32:42;15.50;99.90
26537;DHT22;14204;51.262;5.488;2023-05-28T06:35:08;15.50;99.90
26537;DHT22;14204;51.262;5.488;2023-05-28T06:37:34;15.60;99.90
26537;DHT22;14204;51.262;5.488;2023-05-28T06:40:00;15.70;99.90
26537;DHT22;14204;51.262;5.488;2023-05-28T06:42:25;15.70;99.90
26537;DHT22;14204;51.262;5.488;2023-05-28T06:44:51;15.80;99.90
26537;DHT22;14204;51.262;5.488;2023-05-28T06:47:17;15.90;99.90
26537;DHT22;14204;51.262;5.488;2023-05-28T06:49:42;16.10;99.90
26537;DHT22;14204;51.262;5.488;2023-05-28T06:52:08;16.20;99.90
26537;DHT22;14204;51.262;5.488;2023-05-28T06:54:34;16.40;99.90
26537;DHT22;14204;51.262;5.488;2023-05-28T06:56:59;16.60;99.90
26537;DHT22;14204;51.262;5.488;2023-05-28T06:59:25;16.70;99.90
26537;DHT22;14204;51.262;5.488;2023-05-28T07:01:51;16.70;99.90
26537;DHT22;14204;51.262;5.488;2023-05-28T07:04:17;16.90;99.90
26537;DHT22;14204;51.262;5.488;2023-05-28T07:06:42;17.10;99.90
26537;DHT22;14204;51.262;5.488;2023-05-28T07:09:08;17.10;99.90
26537;DHT22;14204;51.262;5.488;2023-05-28T07:11:35;17.30;99.90
26537;DHT22;14204;51.262;5.488;2023-05-28T07:14:01;17.50;99.90
26537;DHT22;14204;51.262;5.488;2023-05-28T07:16:26;17.60;99.90
26537;DHT22;14204;51.262;5.488;2023-05-28T07:18:52;17.60;99.90
26537;DHT22;14204;51.262;5.488;2023-05-28T07:21:24;17.60;99.90
26537;DHT22;14204;51.262;5.488;2023-05-28T07:23:50;17.60;99.90
26537;DHT22;14204;51.262;5.488;2023-05-28T07:26:15;17.80;99.90
26537;DHT22;14204;51.262;5.488;2023-05-28T07:28:41;18.10;99.90
26537;DHT22;14204;51.262;5.488;2023-05-28T07:31:07;18.30;99.90
26537;DHT22;14204;51.262;5.488;2023-05-28T07:33:32;18.30;99.90
26537;DHT22;14204;51.262;5.488;2023-05-28T07:35:58;18.50;99.90
26537;DHT22;14204;51.262;5.488;2023-05-28T07:38:23;18.50;99.90
26537;DHT22;14204;51.262;5.488;2023-05-28T07:40:49;18.70;99.90
26537;DHT22;14204;51.262;5.488;2023-05-28T07:43:15;18.80;99.90
26537;DHT22;14204;51.262;5.488;2023-05-28T07:45:41;18.90;99.90
26537;DHT22;14204;51.262;5.488;2023-05-28T07:48:07;19.00;99.90
26537;DHT22;14204;51.262;5.488;2023-05-28T07:50:32;19.10;99.90
26537;DHT22;14204;51.262;5.488;2023-05-28T07:52:59;19.30;99.90
26537;DHT22;14204;51.262;5.488;2023-05-28T07:55:27;19.50;99.90
26537;DHT22;14204;51.262;5.488;2023-05-28T07:57:52;19.70;99.90
26537;DHT22;14204;51.262;5.488;2023-05-28T08:00:18;19.80;99.90
26537;DHT22;14204;51.262;5.488;2023-05-28T08:02:44;19.90;99.90
26537;DHT22;14204;51.262;5.488;2023-05-28T08:05:10;19.90;99.90
26537;DHT22;14204;51.262;5.488;2023-05-28T08:07:36;19.90;99.90
26537;DHT22;14204;51.262;5.488;2023-05-28T08:10:03;20.00;99.90
26537;DHT22;14204;51.262;5.488;2023-05-28T08:12:29;20.30;99.90
26537;DHT22;14204;51.262;5.488;2023-05-28T08:14:55;20.40;99.90
26537;DHT22;14204;51.262;5.488;2023-05-28T08:17:22;20.40;99.90
26537;DHT22;14204;51.262;5.488;2023-05-28T08:19:49;20.60;99.90
26537;DHT22;14204;51.262;5.488;2023-05-28T08:22:15;20.80;99.90
26537;DHT22;14204;51.262;5.488;2023-05-28T08:24:41;21.00;99.90
26537;DHT22;14204;51.262;5.488;2023-05-28T08:27:06;20.90;99.90
26537;DHT22;14204;51.262;5.488;2023-05-28T08:29:32;21.10;99.90
26537;DHT22;14204;51.262;5.488;2023-05-28T08:31:58;21.20;99.90
26537;DHT22;14204;51.262;5.488;2023-05-28T08:34:25;21.30;99.90
26537;DHT22;14204;51.262;5.488;2023-05-28T08:36:51;21.40;99.90
26537;DHT22;14204;51.262;5.488;2023-05-28T08:39:16;21.60;99.90
26537;DHT22;14204;51.262;5.488;2023-05-28T08:41:43;21.80;99.90
26537;DHT22;14204;51.262;5.488;2023-05-28T08:44:09;21.90;99.90
26537;DHT22;14204;51.262;5.488;2023-05-28T08:46:36;22.10;99.90
26537;DHT22;14204;51.262;5.488;2023-05-28T08:49:03;22.30;99.90
26537;DHT22;14204;51.262;5.488;2023-05-28T08:51:30;22.20;99.90
26537;DHT22;14204;51.262;5.488;2023-05-28T08:53:59;22.30;99.90
26537;DHT22;14204;51.262;5.488;2023-05-28T08:56:26;22.30;99.90
26537;DHT22;14204;51.262;5.488;2023-05-28T08:58:52;22.50;99.90
26537;DHT22;14204;51.262;5.488;2023-05-28T09:01:19;22.60;99.90
26537;DHT22;14204;51.262;5.488;2023-05-28T09:03:45;22.50;99.90
26537;DHT22;14204;51.262;5.488;2023-05-28T09:06:11;22.60;99.90
26537;DHT22;14204;51.262;5.488;2023-05-28T09:08:38;22.70;99.90
26537;DHT22;14204;51.262;5.488;2023-05-28T09:11:11;22.90;99.90
26537;DHT22;14204;51.262;5.488;2023-05-28T09:13:47;23.10;99.90
26537;DHT22;14204;51.262;5.488;2023-05-28T09:16:23;23.20;99.90
26537;DHT22;14204;51.262;5.488;2023-05-28T09:19:02;23.30;99.90
26537;DHT22;14204;51.262;5.488;2023-05-28T09:21:28;23.50;99.90
26537;DHT22;14204;51.262;5.488;2023-05-28T09:23:53;23.60;99.90
26537;DHT22;14204;51.262;5.488;2023-05-28T09:26:19;23.70;99.90
26537;DHT22;14204;51.262;5.488;2023-05-28T09:28:46;23.90;99.90
26537;DHT22;14204;51.262;5.488;2023-05-28T09:31:12;23.90;99.90
26537;DHT22;14204;51.262;5.488;2023-05-28T09:33:56;23.80;99.90
26537;DHT22;14204;51.262;5.488;2023-05-28T09:36:21;23.80;99.90
26537;DHT22;14204;51.262;5.488;2023-05-28T09:38:47;24.10;99.90
26537;DHT22;14204;51.262;5.488;2023-05-28T09:41:20;24.30;99.90
26537;DHT22;14204;51.262;5.488;2023-05-28T09:43:58;24.30;99.90
26537;DHT22;14204;51.262;5.488;2023-05-28T09:46:34;24.40;99.90
26537;DHT22;14204;51.262;5.488;2023-05-28T09:49:01;24.60;99.90
26537;DHT22;14204;51.262;5.488;2023-05-28T09:51:30;24.70;99.90
26537;DHT22;14204;51.262;5.488;2023-05-28T09:54:00;24.80;99.90
26537;DHT22;14204;51.262;5.488;2023-05-28T09:56:31;24.90;99.90
26537;DHT22;14204;51.262;5.488;2023-05-28T09:59:01;24.80;99.90
26537;DHT22;14204;51.262;5.488;2023-05-28T10:01:41;24.80;99.90
26537;DHT22;14204;51.262;5.488;2023-05-28T10:04:14;24.90;99.90
26537;DHT22;14204;51.262;5.488;2023-05-28T10:06:44;25.20;99.90
26537;DHT22;14204;51.262;5.488;2023-05-28T10:09:12;25.30;99.50
26537;DHT22;14204;51.262;5.488;2023-05-28T10:11:47;25.30;99.90
26537;DHT22;14204;51.262;5.488;2023-05-28T10:14:16;25.30;99.90
26537;DHT22;14204;51.262;5.488;2023-05-28T10:16:42;25.60;99.90
26537;DHT22;14204;51.262;5.488;2023-05-28T10:19:09;25.60;99.20
26537;DHT22;14204;51.262;5.488;2023-05-28T10:21:35;25.50;98.40
26537;DHT22;14204;51.262;5.488;2023-05-28T10:24:02;25.50;96.70
26537;DHT22;14204;51.262;5.488;2023-05-28T10:26:28;25.60;98.10
26537;DHT22;14204;51.262;5.488;2023-05-28T10:28:55;25.80;97.70
26537;DHT22;14204;51.262;5.488;2023-05-28T10:31:22;26.00;98.10
26537;DHT22;14204;51.262;5.488;2023-05-28T10:33:48;25.90;97.50
26537;DHT22;14204;51.262;5.488;2023-05-28T10:36:15;25.90;97.20
26537;DHT22;14204;51.262;5.488;2023-05-28T10:39:03;25.90;97.70
26537;DHT22;14204;51.262;5.488;2023-05-28T10:41:33;25.90;97.10
26537;DHT22;14204;51.262;5.488;2023-05-28T10:44:06;26.00;97.80
26537;DHT22;14204;51.262;5.488;2023-05-28T10:46:37;26.20;96.10
26537;DHT22;14204;51.262;5.488;2023-05-28T10:52:00;26.40;97.30
26537;DHT22;14204;51.262;5.488;2023-05-28T11:02:16;26.60;96.20
26537;DHT22;14204;51.262;5.488;2023-05-28T11:04:42;26.60;95.50
26537;DHT22;14204;51.262;5.488;2023-05-28T11:07:08;26.60;96.00
26537;DHT22;14204;51.262;5.488;2023-05-28T11:09:34;26.60;95.10
26537;DHT22;14204;51.262;5.488;2023-05-28T11:12:01;26.50;95.40
26537;DHT22;14204;51.262;5.488;2023-05-28T11:14:35;26.60;96.40
26537;DHT22;14204;51.262;5.488;2023-05-28T11:17:04;26.70;97.50
26537;DHT22;14204;51.262;5.488;2023-05-28T11:19:30;26.80;95.30
26537;DHT22;14204;51.262;5.488;2023-05-28T11:21:56;27.00;95.10
26537;DHT22;14204;51.262;5.488;2023-05-28T11:24:22;27.00;95.20
26537;DHT22;14204;51.262;5.488;2023-05-28T11:26:48;26.90;96.10
26537;DHT22;14204;51.262;5.488;2023-05-28T11:29:15;26.90;94.40
26537;DHT22;14204;51.262;5.488;2023-05-28T11:31:41;26.80;95.20
26537;DHT22;14204;51.262;5.488;2023-05-28T11:34:08;26.80;95.80
26537;DHT22;14204;51.262;5.488;2023-05-28T11:36:43;26.80;95.50
26537;DHT22;14204;51.262;5.488;2023-05-28T11:39:10;26.60;95.60
26537;DHT22;14204;51.262;5.488;2023-05-28T11:41:36;26.70;95.50
26537;DHT22;14204;51.262;5.488;2023-05-28T11:44:02;26.60;96.80
26537;DHT22;14204;51.262;5.488;2023-05-28T11:46:28;26.40;95.30
26537;DHT22;14204;51.262;5.488;2023-05-28T11:48:54;26.30;95.60
26537;DHT22;14204;51.262;5.488;2023-05-28T11:51:20;26.60;95.30
26537;DHT22;14204;51.262;5.488;2023-05-28T11:53:46;26.50;95.20
26537;DHT22;14204;51.262;5.488;2023-05-28T11:56:12;26.60;95.40
26537;DHT22;14204;51.262;5.488;2023-05-28T11:58:44;26.40;95.50
26537;DHT22;14204;51.262;5.488;2023-05-28T12:01:16;26.50;96.80
26537;DHT22;14204;51.262;5.488;2023-05-28T12:03:42;26.60;95.00
26537;DHT22;14204;51.262;5.488;2023-05-28T12:06:08;26.70;94.20
26537;DHT22;14204;51.262;5.488;2023-05-28T12:08:34;26.60;95.30
26537;DHT22;14204;51.262;5.488;2023-05-28T12:11:01;26.60;94.60
26537;DHT22;14204;51.262;5.488;2023-05-28T12:13:34;26.50;93.80
26537;DHT22;14204;51.262;5.488;2023-05-28T12:16:11;26.70;93.90
26537;DHT22;14204;51.262;5.488;2023-05-28T12:18:44;26.70;94.80
26537;DHT22;14204;51.262;5.488;2023-05-28T12:21:14;26.70;95.20
26537;DHT22;14204;51.262;5.488;2023-05-28T12:23:44;27.10;94.40
26537;DHT22;14204;51.262;5.488;2023-05-28T12:26:10;27.20;95.50
26537;DHT22;14204;51.262;5.488;2023-05-28T12:28:38;27.30;93.80
26537;DHT22;14204;51.262;5.488;2023-05-28T12:31:07;27.40;93.40
26537;DHT22;14204;51.262;5.488;2023-05-28T12:33:33;27.60;92.70
26537;DHT22;14204;51.262;5.488;2023-05-28T12:35:59;27.70;92.90
26537;DHT22;14204;51.262;5.488;2023-05-28T12:38:26;27.50;92.80
26537;DHT22;14204;51.262;5.488;2023-05-28T12:40:52;27.60;91.80
26537;DHT22;14204;51.262;5.488;2023-05-28T12:43:18;27.70;92.50
26537;DHT22;14204;51.262;5.488;2023-05-28T12:45:44;27.60;92.10
26537;DHT22;14204;51.262;5.488;2023-05-28T12:48:10;27.60;93.20
26537;DHT22;14204;51.262;5.488;2023-05-28T12:50:36;27.60;91.80
26537;DHT22;14204;51.262;5.488;2023-05-28T12:53:02;27.60;90.40
26537;DHT22;14204;51.262;5.488;2023-05-28T12:55:31;27.60;91.00
26537;DHT22;14204;51.262;5.488;2023-05-28T12:57:57;27.40;91.90
26537;DHT22;14204;51.262;5.488;2023-05-28T13:00:23;27.40;91.90
26537;DHT22;14204;51.262;5.488;2023-05-28T13:02:50;27.20;90.90
26537;DHT22;14204;51.262;5.488;2023-05-28T13:05:16;27.20;91.70
26537;DHT22;14204;51.262;5.488;2023-05-28T13:07:42;27.20;90.60
26537;DHT22;14204;51.262;5.488;2023-05-28T13:10:10;27.20;90.90
26537;DHT22;14204;51.262;5.488;2023-05-28T13:12:46;26.90;90.90
26537;DHT22;14204;51.262;5.488;2023-05-28T13:15:12;26.70;91.70
26537;DHT22;14204;51.262;5.488;2023-05-28T13:17:37;26.90;91.80
26537;DHT22;14204;51.262;5.488;2023-05-28T13:20:04;26.90;91.80
26537;DHT22;14204;51.262;5.488;2023-05-28T13:22:32;26.80;92.30
26537;DHT22;14204;51.262;5.488;2023-05-28T13:25:01;26.70;91.60
26537;DHT22;14204;51.262;5.488;2023-05-28T13:27:28;26.80;92.20
26537;DHT22;14204;51.262;5.488;2023-05-28T13:29:53;26.80;91.80
26537;DHT22;14204;51.262;5.488;2023-05-28T13:32:19;26.90;91.90
26537;DHT22;14204;51.262;5.488;2023-05-28T13:34:45;27.00;90.90
26537;DHT22;14204;51.262;5.488;2023-05-28T13:37:10;26.80;91.30
26537;DHT22;14204;51.262;5.488;2023-05-28T13:39:36;26.70;92.70
26537;DHT22;14204;51.262;5.488;2023-05-28T13:42:02;26.70;92.80
26537;DHT22;14204;51.262;5.488;2023-05-28T13:44:32;26.70;94.10
26537;DHT22;14204;51.262;5.488;2023-05-28T13:46:58;26.80;93.20
26537;DHT22;14204;51.262;5.488;2023-05-28T13:49:24;26.90;91.70
26537;DHT22;14204;51.262;5.488;2023-05-28T13:51:49;26.90;92.10
26537;DHT22;14204;51.262;5.488;2023-05-28T13:54:16;26.90;92.10
26537;DHT22;14204;51.262;5.488;2023-05-28T13:56:42;27.00;91.90
26537;DHT22;14204;51.262;5.488;2023-05-28T13:59:07;27.00;91.50
26537;DHT22;14204;51.262;5.488;2023-05-28T14:01:34;26.90;91.40
26537;DHT22;14204;51.262;5.488;2023-05-28T14:04:00;26.90;92.80
26537;DHT22;14204;51.262;5.488;2023-05-28T14:06:26;26.80;92.40
26537;DHT22;14204;51.262;5.488;2023-05-28T14:08:52;26.70;90.70
26537;DHT22;14204;51.262;5.488;2023-05-28T14:11:17;27.00;91.00
26537;DHT22;14204;51.262;5.488;2023-05-28T14:13:43;27.20;91.20
26537;DHT22;14204;51.262;5.488;2023-05-28T14:16:09;27.30;91.90
26537;DHT22;14204;51.262;5.488;2023-05-28T14:18:35;27.40;91.40
26537;DHT22;14204;51.262;5.488;2023-05-28T14:21:00;27.40;91.90
26537;DHT22;14204;51.262;5.488;2023-05-28T14:23:26;27.50;91.50
26537;DHT22;14204;51.262;5.488;2023-05-28T14:25:52;27.50;91.10
26537;DHT22;14204;51.262;5.488;2023-05-28T14:28:17;27.30;91.40
26537;DHT22;14204;51.262;5.488;2023-05-28T14:30:43;27.00;91.50
26537;DHT22;14204;51.262;5.488;2023-05-28T14:33:10;27.10;91.50
26537;DHT22;14204;51.262;5.488;2023-05-28T14:35:36;27.10;91.70
26537;DHT22;14204;51.262;5.488;2023-05-28T14:38:02;27.00;92.90
26537;DHT22;14204;51.262;5.488;2023-05-28T14:40:28;27.00;93.10
26537;DHT22;14204;51.262;5.488;2023-05-28T14:42:54;26.90;93.10
26537;DHT22;14204;51.262;5.488;2023-05-28T14:45:19;26.80;93.20
26537;DHT22;14204;51.262;5.488;2023-05-28T14:47:45;26.70;92.70
26537;DHT22;14204;51.262;5.488;2023-05-28T14:50:11;26.60;94.00
26537;DHT22;14204;51.262;5.488;2023-05-28T14:52:37;26.50;94.10
26537;DHT22;14204;51.262;5.488;2023-05-28T14:55:02;26.50;92.50
26537;DHT22;14204;51.262;5.488;2023-05-28T14:57:28;26.30;93.30
26537;DHT22;14204;51.262;5.488;2023-05-28T15:00:00;26.40;93.20
26537;DHT22;14204;51.262;5.488;2023-05-28T15:02:27;26.60;93.20
26537;DHT22;14204;51.262;5.488;2023-05-28T15:04:53;26.50;92.30
26537;DHT22;14204;51.262;5.488;2023-05-28T15:07:18;26.30;91.40
26537;DHT22;14204;51.262;5.488;2023-05-28T15:09:44;26.30;92.00
26537;DHT22;14204;51.262;5.488;2023-05-28T15:12:11;26.40;91.70
26537;DHT22;14204;51.262;5.488;2023-05-28T15:14:37;26.20;93.10
26537;DHT22;14204;51.262;5.488;2023-05-28T15:17:03;26.20;93.10
26537;DHT22;14204;51.262;5.488;2023-05-28T15:19:28;26.10;92.70
26537;DHT22;14204;51.262;5.488;2023-05-28T15:21:54;26.20;92.90
26537;DHT22;14204;51.262;5.488;2023-05-28T15:24:20;26.30;93.90
26537;DHT22;14204;51.262;5.488;2023-05-28T15:26:46;26.30;94.30
26537;DHT22;14204;51.262;5.488;2023-05-28T15:29:13;26.50;94.10
26537;DHT22;14204;51.262;5.488;2023-05-28T15:31:47;26.60;93.20
26537;DHT22;14204;51.262;5.488;2023-05-28T15:34:14;26.20;93.30
26537;DHT22;14204;51.262;5.488;2023-05-28T15:36:40;26.30;94.90
26537;DHT22;14204;51.262;5.488;2023-05-28T15:39:06;26.20;94.40